首页
METAR-TAF:

METAR-TAF

机场 :

Clyde, 努那武特, 加拿大

纬度: 70-29N, 经度: 068-31W, 海拔: 25米

当前天气观测

该预报发布于20分钟前的00:06 UTC
风速22节,风向西北,有时为30节阵风
温度 -26°C
湿度 76%
气压 996 hPa
能見度: 2.8公里
少量云层高于2100英尺
多云层高于3000英尺
阴天层高于4300英尺
小雪, 高吹雪

METAR: CYCY 190006Z AUTO 31022G30KT 1 3/4SM -SN BLSN FEW021 BKN030 OVC043 M26/M29 A2940 RMK VIS VRB 1-3 SLP963

时间: 20:26 (00:26 UTC)

预报

该预报发布于42分钟前的23:44 UTC
预报有效从18日的 23点(UTC)到 19日的 07点(UTC)
风速20节,风向西转西北,有时为34节阵风
能見度: 1.2公里
阴天层高于3000英尺
小雪, 高吹雪
短暂存在
从 18日的 23点(UTC)到 19日的 05点(UTC)
能見度: 4.8公里
高吹雪
从 19日的 0500点(UTC)
风速28节,风向西转西北,有时为42节阵风
能見度: 0.8公里
层高于600英尺
小雪, 高吹雪

TAF: CYCY 182344Z 1823/1907 29020G34KT 3/4SM -SN BLSN OVC030 TEMPO 1823/1905 3SM BLSN FM190500 30028G42KT 1/2SM -SN BLSN VV006 RMK FCST BASED ON AUTO OBS. NXT FCST BY 190100Z

超过4000个机场的气象观测和天气预报(METAR&TAF报告)。

可查询的气象台以黄色和红色小点在地图上表示。

将鼠标移到小点上方,可查看气象台名称。

然后点击查看天气观测和预报。

如需切换地图:点击带黑十字的绿色按钮放大地图;点击带横线的绿色按钮缩小地图;或者点击绿色箭头查看邻近地区的地图。


METAR-TAF: